Menoken, ND (58558)

6:45 PM CDT on September 03, 2015 (GMT -0500)
Country Meadows | | Change Station
CLOSE
Current Station
Personal Weather Station
Location: Menoken, ND
Elevation: 1686 ft
Nearby Weather Stations

Elev 1686 ft 46.81 °N, 100.60 °W | Updated 6 minutes ago

Partly Cloudy
Partly Cloudy
90.9 °F
Feels Like 92 °F
N
5.8
Wind Variable Wind from South

Today
High -- | Low -- °F
--% Chance of Precip.
Yesterday
High -- | Low -- °F
Precip. -- in
7:04 AM 8:18 PM
Waning Gibbous, 65% visible
Pressure 29.60 in
Visibility 10.0 miles
Clouds Clear
Heat Index 92 °F
Dew Point 64 °F
Humidity 41%
Rainfall 0.00 in
Snow Depth Not available.
UV 2 out of 12
Pollen 11.00 out of 12
Air Quality Not available.
Flu Activity Not available.
METAR KBIS 032252Z 17015KT 10SM CLR 37/16 A2964 RMK AO2 LTG DSNT SW SLP022 T03720156
Pressure 29.60 in
Visibility 10.0 miles
Clouds Clear
Heat Index 92 °F
Dew Point 64 °F
Humidity 41%
Rainfall 0.00 in
Snow Depth Not available.
UV 2 out of 12
Pollen 11.00 out of 12
Air Quality Not available.
Flu Activity Not available.
METAR KBIS 032252Z 17015KT 10SM CLR 37/16 A2964 RMK AO2 LTG DSNT SW SLP022 T03720156

10-Day Weather Forecast

×

Almanac

Astronomy

Sep. 03, 2015 Rise Set
Actual Time
Civil Twilight
Nautical Twilight
Astronomical Twilight
Moon
Length of Visible Light
Length of Day
Tomorrow will be .
, % of the Moon is Illuminated

Today's Extremes

State Highs State Lows

Community

WunderPhotos

Upload Photos

1,852,063 photos uploaded!

WunderBlogs® & News

Nearby

Air Quality

  Air Quality AQ Index Pollutant
Not available.

Snow Depth

Station Depth Elevation

Earthquake Activity

City Distance Mag. Time & Date
Minimum magnitude displayed is 2.5.

Coastal Water Temperatures

Place Temperature

Stations

Nearby Weather Stations

Station Location Temp. Windchill Dew Point Humidity Wind Precip. Elev Updated Type